createdAt,value
2023-06-20T00:01:04.066Z,12.00
2023-06-20T00:06:07.609Z,12.15
2023-06-20T00:11:10.984Z,20.67
2023-06-20T00:16:22.063Z,23.38
2023-06-20T00:21:27.202Z,21.30
2023-06-20T00:26:30.847Z,22.25
2023-06-20T00:31:35.574Z,16.92
2023-06-20T00:36:39.855Z,20.73
2023-06-20T00:41:43.122Z,21.63
2023-06-20T00:46:47.823Z,17.77
2023-06-20T00:51:52.182Z,17.25
2023-06-20T00:56:56.072Z,15.23
2023-06-20T01:02:00.739Z,14.70
2023-06-20T01:07:13.853Z,15.05
2023-06-20T01:12:22.484Z,14.67
2023-06-20T01:17:33.385Z,14.40
2023-06-20T01:22:47.704Z,13.55
2023-06-20T01:27:58.001Z,13.30
2023-06-20T01:33:05.281Z,11.97
2023-06-20T01:38:11.746Z,11.93
2023-06-20T01:43:19.131Z,12.18
2023-06-20T01:48:27.239Z,12.05
2023-06-20T01:53:34.492Z,12.47
2023-06-20T01:58:41.910Z,11.83
2023-06-20T02:03:45.900Z,12.37
2023-06-20T02:08:51.577Z,12.25
2023-06-20T02:13:56.819Z,11.20
2023-06-20T02:19:00.127Z,12.25
2023-06-20T02:24:08.061Z,11.90
2023-06-20T02:29:12.948Z,11.65
2023-06-20T02:34:19.846Z,12.90
2023-06-20T02:39:25.946Z,12.43
2023-06-20T02:44:29.468Z,12.93
2023-06-20T02:49:41.517Z,13.50
2023-06-20T02:54:50.748Z,13.57
2023-06-20T03:00:01.162Z,13.70
2023-06-20T03:05:09.030Z,14.03
2023-06-20T03:10:14.843Z,13.32
2023-06-20T03:15:18.143Z,12.80
2023-06-20T03:20:21.754Z,12.57
2023-06-20T03:25:26.867Z,12.70
2023-06-20T03:30:30.433Z,13.57
2023-06-20T03:35:34.053Z,13.65
2023-06-20T03:40:38.796Z,13.15
2023-06-20T03:45:42.210Z,13.50
2023-06-20T03:50:45.620Z,14.48
2023-06-20T03:55:52.152Z,14.45
2023-06-20T04:00:55.627Z,12.23
2023-06-20T04:06:02.458Z,12.00
2023-06-20T04:11:07.463Z,11.57
2023-06-20T04:16:10.779Z,12.32
2023-06-20T04:21:14.299Z,12.43
2023-06-20T04:26:20.145Z,11.45
2023-06-20T04:31:23.766Z,11.52
2023-06-20T04:36:28.232Z,11.55
2023-06-20T04:41:35.253Z,11.25
2023-06-20T04:46:39.802Z,12.23
2023-06-20T04:51:43.487Z,12.38
2023-06-20T04:56:48.253Z,12.90
2023-06-20T05:01:52.515Z,12.52
2023-06-20T05:06:56.342Z,12.55
2023-06-20T05:12:05.195Z,12.85
2023-06-20T05:17:09.008Z,14.33
2023-06-20T05:22:12.296Z,12.90
2023-06-20T05:27:16.971Z,13.27
2023-06-20T05:32:20.383Z,12.98
2023-06-20T05:37:23.739Z,13.93
2023-06-20T05:42:28.445Z,13.85
2023-06-20T05:47:31.716Z,14.80
2023-06-20T05:52:37.144Z,14.07
2023-06-20T05:57:41.838Z,13.20
2023-06-20T06:02:46.542Z,14.50
2023-06-20T06:07:50.417Z,14.57
2023-06-20T06:12:55.097Z,13.73
2023-06-20T06:17:58.467Z,13.87
2023-06-20T06:23:01.835Z,13.00
2023-06-20T06:28:06.618Z,14.00
2023-06-20T06:33:10.570Z,12.63
2023-06-20T06:38:14.325Z,12.70
2023-06-20T06:43:18.967Z,12.47
2023-06-20T06:48:26.263Z,12.73
2023-06-20T06:53:29.668Z,13.20
2023-06-20T06:58:34.296Z,12.77
2023-06-20T07:03:37.663Z,12.30
2023-06-20T07:08:40.933Z,12.30
2023-06-20T07:13:45.642Z,11.90
2023-06-20T07:18:48.947Z,11.73
2023-06-20T07:23:52.236Z,11.73
2023-06-20T07:28:57.038Z,11.63
2023-06-20T07:34:00.385Z,11.02
2023-06-20T07:39:03.971Z,10.90
2023-06-20T07:44:12.077Z,9.33
2023-06-20T07:49:15.409Z,8.90
2023-06-20T07:54:18.962Z,9.30
2023-06-20T07:59:23.708Z,13.15
2023-06-20T08:04:27.193Z,10.30
2023-06-20T08:09:30.494Z,10.17
2023-06-20T08:14:35.121Z,9.57
2023-06-20T08:19:38.457Z,9.60
2023-06-20T08:24:41.808Z,8.68
2023-06-20T08:29:46.465Z,9.05
2023-06-20T08:34:53.539Z,9.05
2023-06-20T08:39:58.530Z,8.70
2023-06-20T08:45:03.995Z,8.43
2023-06-20T08:50:08.696Z,8.35
2023-06-20T08:55:12.977Z,7.73
2023-06-20T09:00:20.872Z,7.72
2023-06-20T09:05:24.407Z,7.55
2023-06-20T09:10:28.304Z,7.28
2023-06-20T09:15:34.763Z,6.90
2023-06-20T09:20:38.083Z,6.68
2023-06-20T09:25:42.010Z,6.60
2023-06-20T09:30:49.998Z,6.22
2023-06-20T09:35:53.490Z,6.63
2023-06-20T09:40:56.754Z,6.70
2023-06-20T09:46:01.665Z,6.75
2023-06-20T09:51:06.650Z,6.43
2023-06-20T09:56:12.671Z,6.35
2023-06-20T10:01:22.464Z,6.70
2023-06-20T10:06:26.566Z,6.40
2023-06-20T10:11:30.337Z,6.43
2023-06-20T10:16:35.681Z,6.07
2023-06-20T10:21:55.778Z,5.57
2023-06-20T10:27:02.247Z,6.20
2023-06-20T10:32:08.287Z,5.97
2023-06-20T10:37:17.240Z,5.10
2023-06-20T10:42:40.240Z,5.87
2023-06-20T10:47:44.999Z,6.22
2023-06-20T10:52:48.334Z,6.07
2023-06-20T10:57:52.779Z,5.53
2023-06-20T11:02:58.606Z,5.30
2023-06-20T11:08:05.915Z,4.80
2023-06-20T11:13:09.619Z,5.20
2023-06-20T11:18:14.419Z,5.22
2023-06-20T11:23:17.786Z,5.72
2023-06-20T11:28:21.298Z,5.80
2023-06-20T11:33:33.691Z,4.67
2023-06-20T11:38:41.349Z,4.80
2023-06-20T11:43:45.831Z,4.32
2023-06-20T11:48:54.922Z,4.55
2023-06-20T11:54:06.525Z,4.57
2023-06-20T11:59:11.469Z,4.13
2023-06-20T12:04:21.202Z,4.10
2023-06-20T12:09:25.110Z,4.28
2023-06-20T12:14:28.410Z,4.63
2023-06-20T12:19:33.537Z,3.83
2023-06-20T12:24:38.071Z,3.95
2023-06-20T12:29:41.411Z,3.78
2023-06-20T12:34:46.096Z,3.80
2023-06-20T12:39:49.633Z,4.28
2023-06-20T12:44:53.248Z,3.50
2023-06-20T12:49:57.981Z,3.40
2023-06-20T12:55:01.996Z,3.50
2023-06-20T13:00:07.121Z,3.47
2023-06-20T13:05:12.768Z,3.80
2023-06-20T13:10:17.840Z,3.40
2023-06-20T13:15:25.919Z,3.35
2023-06-20T13:20:30.962Z,3.40
2023-06-20T13:25:34.555Z,3.58
2023-06-20T13:30:38.118Z,3.40
2023-06-20T13:35:42.936Z,3.45
2023-06-20T13:40:46.818Z,3.80
2023-06-20T13:45:50.267Z,3.67
2023-06-20T13:50:54.968Z,3.30
2023-06-20T13:55:58.260Z,3.50
2023-06-20T14:01:01.641Z,3.80
2023-06-20T14:06:06.536Z,3.27
2023-06-20T14:11:09.980Z,3.10
2023-06-20T14:16:13.409Z,3.50
2023-06-20T14:21:19.521Z,3.25
2023-06-20T14:26:22.842Z,3.50
2023-06-20T14:31:26.260Z,3.40
2023-06-20T14:36:36.178Z,3.47
2023-06-20T14:41:39.509Z,3.17
2023-06-20T14:46:42.880Z,3.23
2023-06-20T14:51:47.614Z,3.97
2023-06-20T14:56:50.957Z,3.50
2023-06-20T15:01:54.590Z,3.58
2023-06-20T15:06:59.329Z,3.50
2023-06-20T15:12:02.874Z,3.05
2023-06-20T15:17:06.718Z,2.95
2023-06-20T15:22:11.532Z,3.60
2023-06-20T15:27:15.215Z,3.33
2023-06-20T15:32:18.515Z,3.50
2023-06-20T15:37:23.229Z,3.50
2023-06-20T15:42:26.647Z,3.70
2023-06-20T15:47:30.038Z,3.80
2023-06-20T15:52:34.790Z,3.90
2023-06-20T15:57:39.794Z,3.83
2023-06-20T16:02:43.536Z,4.25
2023-06-20T16:07:48.296Z,4.20
2023-06-20T16:12:51.744Z,4.00
2023-06-20T16:17:55.116Z,4.20
2023-06-20T16:23:00.439Z,4.10
2023-06-20T16:28:03.835Z,4.37
2023-06-20T16:33:08.253Z,4.40
2023-06-20T16:38:13.656Z,4.00
2023-06-20T16:43:17.484Z,4.20
2023-06-20T16:48:21.359Z,4.20
2023-06-20T16:53:26.201Z,4.35
2023-06-20T16:58:29.494Z,4.00
2023-06-20T17:03:32.917Z,4.28
2023-06-20T17:08:37.624Z,4.30
2023-06-20T17:13:41.839Z,4.22
2023-06-20T17:18:45.068Z,4.53
2023-06-20T17:23:49.853Z,4.25
2023-06-20T17:28:53.216Z,4.07
2023-06-20T17:33:56.604Z,4.38
2023-06-20T17:39:01.484Z,4.90
2023-06-20T17:44:04.814Z,4.70
2023-06-20T17:49:08.282Z,4.35
2023-06-20T17:54:12.934Z,4.50
2023-06-20T17:59:16.252Z,4.47
2023-06-20T18:04:19.537Z,4.33
2023-06-20T18:09:24.544Z,4.40
2023-06-20T18:14:28.025Z,4.43
2023-06-20T18:19:40.025Z,4.47
2023-06-20T18:24:51.689Z,4.15
2023-06-20T18:29:54.931Z,4.57
2023-06-20T18:34:58.204Z,4.55
2023-06-20T18:40:03.433Z,4.40
2023-06-20T18:45:07.856Z,4.30
2023-06-20T18:50:11.498Z,4.50
2023-06-20T18:55:16.183Z,4.82
2023-06-20T19:00:19.912Z,4.90
2023-06-20T19:05:23.396Z,4.88
2023-06-20T19:10:28.280Z,4.50
2023-06-20T19:15:32.386Z,4.57
2023-06-20T19:20:39.472Z,4.35
2023-06-20T19:25:44.247Z,4.73
2023-06-20T19:30:47.985Z,7.53
2023-06-20T19:35:51.326Z,4.60
2023-06-20T19:40:56.092Z,4.57
2023-06-20T19:45:59.484Z,4.70
2023-06-20T19:51:02.878Z,4.20
2023-06-20T19:56:08.609Z,4.70
2023-06-20T20:01:12.217Z,4.53
2023-06-20T20:06:15.992Z,4.75
2023-06-20T20:11:21.287Z,4.75
2023-06-20T20:16:24.759Z,4.93
2023-06-20T20:21:28.191Z,4.80
2023-06-20T20:26:33.303Z,6.28
2023-06-20T20:31:37.613Z,5.05
2023-06-20T20:36:41.313Z,4.82
2023-06-20T20:41:49.043Z,4.97
2023-06-20T20:46:52.366Z,5.20
2023-06-20T20:51:55.745Z,5.53
2023-06-20T20:57:00.700Z,3.47
2023-06-20T21:02:04.556Z,3.58
2023-06-20T21:07:09.431Z,4.07
2023-06-20T21:12:14.129Z,6.03
2023-06-20T21:17:17.686Z,6.97
2023-06-20T21:22:21.317Z,6.80
2023-06-20T21:27:26.109Z,6.20
2023-06-20T21:32:29.503Z,5.50
2023-06-20T21:37:33.186Z,4.57
2023-06-20T21:42:38.233Z,4.60
2023-06-20T21:47:41.700Z,5.20
2023-06-20T21:52:45.376Z,5.20
2023-06-20T21:57:50.166Z,5.03
2023-06-20T22:02:53.714Z,4.38
2023-06-20T22:07:57.093Z,4.43
2023-06-20T22:13:01.781Z,5.03
2023-06-20T22:18:05.545Z,4.65
2023-06-20T22:23:09.987Z,3.83
2023-06-20T22:28:14.751Z,18.80
2023-06-20T22:33:19.108Z,7.43
2023-06-20T22:38:22.414Z,8.52
2023-06-20T22:43:27.067Z,3.97
2023-06-20T22:48:30.430Z,3.70
2023-06-20T22:53:33.718Z,10.73
2023-06-20T22:58:38.389Z,7.55
2023-06-20T23:03:42.101Z,4.47
2023-06-20T23:08:45.860Z,6.07
2023-06-20T23:13:50.544Z,4.50
2023-06-20T23:18:55.350Z,4.40
2023-06-20T23:23:58.931Z,3.70
2023-06-20T23:29:04.576Z,3.67
2023-06-20T23:34:08.255Z,3.88
2023-06-20T23:39:11.810Z,3.75
2023-06-20T23:44:16.510Z,3.63
2023-06-20T23:49:19.939Z,3.97
2023-06-20T23:54:24.188Z,3.88
2023-06-20T23:59:28.854Z,3.60
